Time;durP1;ratioP1;P1;durP2;ratioP2;P2;SDS_P1;SDS_P2;PMS_P1;PMS_P2;Temp;Humidity;BMP_temperature;BMP_pressure;BME280_temperature;BME280_humidity;BME280_pressure;Samples;Min_cycle;Max_cycle;Signal;HPM_P1;HPM_P2
2023/05/10 00:02:01;;;;;;;29.90;13.30;;;;;;;4.55;50.42;99650.31;104542;1267;97903;-84
2023/05/10 00:04:28;;;;;;;26.30;13.10;;;;;;;4.51;50.63;99648.70;104554;1262;97973;-84
2023/05/10 00:06:56;;;;;;;30.20;15.30;;;;;;;4.46;50.76;99647.52;104669;1262;112468;-84
2023/05/10 00:09:24;;;;;;;31.50;14.00;;;;;;;4.46;50.56;99652.58;104732;1268;97941;-85
2023/05/10 00:11:52;;;;;;;26.60;13.00;;;;;;;4.49;50.74;99650.52;104533;1266;106897;-84
2023/05/10 00:14:19;;;;;;;28.70;13.60;;;;;;;4.46;50.72;99643.09;104620;1278;97983;-84
2023/05/10 00:16:47;;;;;;;26.10;12.10;;;;;;;4.39;50.73;99646.89;104819;1262;97948;-84
2023/05/10 00:19:15;;;;;;;27.90;12.90;;;;;;;4.31;51.08;99643.64;104709;1262;111529;-84
2023/05/10 00:21:43;;;;;;;28.30;13.30;;;;;;;4.25;50.77;99643.17;104573;1267;97954;-84
2023/05/10 00:24:11;;;;;;;32.30;14.50;;;;;;;4.26;50.60;99639.98;104652;1266;108901;-85
2023/05/10 00:26:39;;;;;;;30.30;13.70;;;;;;;4.28;51.05;99639.19;104615;1262;97957;-83
2023/05/10 00:29:06;;;;;;;29.80;13.00;;;;;;;4.25;51.13;99638.10;104476;1267;97980;-84
2023/05/10 00:31:34;;;;;;;26.70;12.90;;;;;;;4.21;51.22;99635.98;104563;1268;111548;-84
2023/05/10 00:34:02;;;;;;;26.30;12.00;;;;;;;4.17;51.16;99636.46;104859;1262;98058;-84
2023/05/10 00:36:31;;;;;;;28.20;13.40;;;;;;;4.15;51.19;99634.41;104756;1265;108640;-84
2023/05/10 00:38:59;;;;;;;29.60;13.30;;;;;;;4.16;51.30;99634.02;104745;1266;97885;-84
2023/05/10 00:41:27;;;;;;;26.90;13.10;;;;;;;4.18;51.47;99634.33;104632;1264;97891;-84
2023/05/10 00:43:54;;;;;;;29.80;13.00;;;;;;;4.16;51.42;99630.33;104629;1268;113399;-84
2023/05/10 00:46:22;;;;;;;27.10;12.50;;;;;;;4.13;51.39;99630.62;104510;1265;97965;-84
2023/05/10 00:48:50;;;;;;;26.50;12.70;;;;;;;4.05;51.41;99633.91;104615;1266;107670;-84
2023/05/10 00:51:18;;;;;;;27.10;13.50;;;;;;;3.96;51.29;99634.42;104597;1264;98001;-84
2023/05/10 00:53:46;;;;;;;28.90;13.30;;;;;;;3.92;51.57;99630.52;104863;1266;97979;-84
2023/05/10 00:56:15;;;;;;;28.70;12.90;;;;;;;3.93;51.71;99636.09;104525;1266;111286;-85
2023/05/10 00:58:43;;;;;;;27.20;12.20;;;;;;;3.96;51.76;99632.67;104632;1276;98029;-84
2023/05/10 01:01:12;;;;;;;26.10;12.00;;;;;;;3.96;51.83;99632.83;104706;1265;106739;-85
2023/05/10 01:03:40;;;;;;;27.90;11.90;;;;;;;3.94;52.00;99628.52;104498;1277;98012;-84
2023/05/10 01:06:09;;;;;;;24.90;12.30;;;;;;;3.89;51.71;99630.46;104628;1265;97970;-84
2023/05/10 01:08:37;;;;;;;25.80;12.80;;;;;;;3.84;51.84;99628.52;104812;1267;114297;-84
2023/05/10 01:11:05;;;;;;;26.60;12.50;;;;;;;3.86;51.93;99625.30;104782;1265;98163;-85
2023/05/10 01:13:37;;;;;;;28.40;13.10;;;;;;;3.88;51.91;99622.04;104822;1264;107994;-84
2023/05/10 01:16:06;;;;;;;28.50;11.40;;;;;;;3.88;52.01;99624.67;104519;1262;97960;-83
2023/05/10 01:18:40;;;;;;;25.50;11.40;;;;;;;3.83;52.27;99622.79;104733;1266;99203;-84
2023/05/10 01:21:22;;;;;;;24.40;11.60;;;;;;;3.76;52.39;99622.49;104560;1267;111404;-86
2023/05/10 01:24:12;;;;;;;26.60;11.20;;;;;;;3.76;52.29;99616.54;104540;1265;98780;-84
2023/05/10 01:26:40;;;;;;;25.80;12.20;;;;;;;3.80;52.35;99618.16;104599;1262;107971;-84
2023/05/10 01:29:53;;;;;;;24.40;10.90;;;;;;;3.78;52.34;99614.53;104737;1263;98644;-85
2023/05/10 01:32:46;;;;;;;26.50;11.60;;;;;;;3.72;52.57;99609.30;104884;1267;97938;-85
2023/05/10 01:35:29;;;;;;;29.10;11.90;;;;;;;3.72;52.71;99613.67;104796;1266;110768;-85
2023/05/10 01:38:05;;;;;;;24.90;11.90;;;;;;;3.75;52.59;99613.60;104905;1267;97945;-84
2023/05/10 01:40:42;;;;;;;25.50;12.50;;;;;;;3.77;52.42;99610.73;104651;1263;108856;-84
2023/05/10 01:43:19;;;;;;;24.10;10.90;;;;;;;3.77;52.42;99604.74;104474;1266;97977;-85
2023/05/10 01:46:04;;;;;;;26.20;11.60;;;;;;;3.73;52.98;99606.48;104571;1268;99184;-84
2023/05/10 01:48:33;;;;;;;23.80;10.10;;;;;;;3.62;52.80;99605.61;104539;1265;112482;-83
2023/05/10 01:51:02;;;;;;;23.40;10.50;;;;;;;3.58;53.00;99609.78;104845;1266;97957;-84
2023/05/10 01:53:33;;;;;;;23.80;10.30;;;;;;;3.55;52.88;99609.02;104594;1262;108894;-84
2023/05/10 01:56:03;;;;;;;23.20;9.60;;;;;;;3.52;53.05;99606.13;104490;1262;97979;-83
2023/05/10 01:58:33;;;;;;;24.80;10.20;;;;;;;3.54;53.30;99607.46;104829;1263;97897;-84
2023/05/10 02:01:04;;;;;;;22.60;9.70;;;;;;;3.53;53.05;99603.64;104761;1267;111467;-84
2023/05/10 02:03:33;;;;;;;21.80;10.30;;;;;;;3.52;53.06;99603.17;104514;1268;97949;-84
2023/05/10 02:06:03;;;;;;;26.80;10.20;;;;;;;3.56;53.17;99606.50;104506;1264;107981;-84
2023/05/10 02:08:33;;;;;;;21.70;9.70;;;;;;;3.61;53.47;99600.95;104599;1269;97941;-84
2023/05/10 02:11:02;;;;;;;24.90;10.30;;;;;;;3.61;53.17;99604.63;104694;1262;98069;-84
2023/05/10 02:13:34;;;;;;;24.50;9.60;;;;;;;3.63;53.51;99597.20;104761;1267;111505;-84
2023/05/10 02:16:04;;;;;;;21.80;9.20;;;;;;;3.64;53.71;99596.10;104582;1265;97972;-84
2023/05/10 02:18:36;;;;;;;24.30;9.70;;;;;;;3.64;53.51;99597.66;104573;1266;107628;-84
2023/05/10 02:21:04;;;;;;;24.70;9.10;;;;;;;3.63;53.42;99593.86;104630;1266;98015;-84
2023/05/10 02:23:33;;;;;;;24.70;9.60;;;;;;;3.62;53.49;99593.36;104583;1267;97971;-84
2023/05/10 02:26:02;;;;;;;21.60;8.60;;;;;;;3.66;53.58;99591.64;104780;1267;111286;-84
2023/05/10 02:28:32;;;;;;;22.70;10.00;;;;;;;3.69;53.67;99591.52;104846;1262;98048;-85
2023/05/10 02:31:01;;;;;;;23.40;9.50;;;;;;;3.66;53.78;99588.98;104509;1267;108858;-84
2023/05/10 02:33:31;;;;;;;23.20;8.80;;;;;;;3.62;53.89;99586.70;104467;1269;97940;-83
2023/05/10 02:36:01;;;;;;;24.40;9.10;;;;;;;3.61;53.76;99591.10;104691;1264;97971;-84
2023/05/10 02:38:31;;;;;;;23.90;10.00;;;;;;;3.60;53.44;99586.94;104644;1267;111349;-85
2023/05/10 02:41:00;;;;;;;22.50;9.10;;;;;;;3.59;53.53;99585.91;104960;1267;98051;-84
2023/05/10 02:43:30;;;;;;;26.70;10.10;;;;;;;3.59;53.34;99587.14;104500;1268;107669;-84
2023/05/10 02:45:58;;;;;;;21.70;9.20;;;;;;;3.57;53.72;99588.08;104606;1265;97960;-85
2023/05/10 02:48:26;;;;;;;20.20;9.40;;;;;;;3.53;53.88;99586.29;104524;1263;98051;-85
2023/05/10 02:51:00;;;;;;;28.70;9.30;;;;;;;3.50;54.12;99593.94;104614;1265;111293;-84
2023/05/10 02:53:33;;;;;;;23.00;9.40;;;;;;;3.49;54.07;99595.56;104721;1262;97948;-85
2023/05/10 02:56:08;;;;;;;23.60;9.90;;;;;;;3.44;54.04;99598.02;104658;1267;108753;-84
2023/05/10 02:58:36;;;;;;;19.80;8.40;;;;;;;3.43;54.13;99600.33;104830;1266;97967;-85
2023/05/10 03:01:04;;;;;;;22.50;8.90;;;;;;;3.41;54.09;99604.61;104475;1268;98310;-85
2023/05/10 03:03:32;;;;;;;21.50;8.90;;;;;;;3.38;54.34;99602.59;104424;1268;111569;-84
2023/05/10 03:06:00;;;;;;;21.10;9.60;;;;;;;3.38;54.31;99599.95;104653;1268;98552;-85
2023/05/10 03:08:29;;;;;;;20.10;8.70;;;;;;;3.36;54.35;99598.78;104814;1265;106746;-84
2023/05/10 03:11:22;;;;;;;18.80;8.60;;;;;;;3.33;54.35;99595.94;104545;1263;97971;-85
2023/05/10 03:14:16;;;;;;;22.30;9.60;;;;;;;3.31;54.46;99596.52;104782;1262;97958;-85
2023/05/10 03:16:56;;;;;;;22.10;9.70;;;;;;;3.36;54.35;99597.41;104787;1268;110420;-84
2023/05/10 03:19:30;;;;;;;21.20;9.40;;;;;;;3.42;54.33;99595.61;104886;1262;98022;-85
2023/05/10 03:22:04;;;;;;;21.00;9.10;;;;;;;3.47;54.46;99594.56;104532;1269;108689;-80
2023/05/10 03:24:36;;;;;;;19.90;8.30;;;;;;;3.48;54.53;99595.59;104959;1263;98060;-80
2023/05/10 03:27:05;;;;;;;21.60;8.60;;;;;;;3.45;55.03;99593.58;104769;1274;98078;-80
2023/05/10 03:29:53;;;;;;;19.90;8.60;;;;;;;3.44;54.40;99592.74;104786;1263;112697;-80
2023/05/10 03:32:22;;;;;;;22.20;9.60;;;;;;;3.50;54.92;99593.91;104788;1262;97971;-81
2023/05/10 03:34:50;;;;;;;25.80;9.80;;;;;;;3.52;54.92;99597.88;104590;1267;107687;-80
2023/05/10 03:37:18;;;;;;;23.10;9.20;;;;;;;3.57;54.80;99596.67;104658;1268;98030;-80
2023/05/10 03:39:46;;;;;;;21.00;9.40;;;;;;;3.62;54.98;99596.70;104777;1262;97892;-81
2023/05/10 03:42:14;;;;;;;23.00;9.10;;;;;;;3.66;54.62;99597.23;104609;1269;110230;-80
2023/05/10 03:44:41;;;;;;;20.60;9.70;;;;;;;3.67;55.29;99595.27;104524;1263;98047;-81
2023/05/10 03:47:09;;;;;;;26.40;10.60;;;;;;;3.67;55.31;99589.50;104477;1268;107552;-81
2023/05/10 03:49:37;;;;;;;23.20;9.60;;;;;;;3.69;55.12;99587.28;104505;1262;98060;-80
2023/05/10 03:52:06;;;;;;;21.00;9.90;;;;;;;3.76;55.32;99584.25;104736;1262;97957;-80
2023/05/10 03:54:34;;;;;;;23.30;9.20;;;;;;;3.80;55.28;99584.10;104743;1268;110411;-80
2023/05/10 03:57:02;;;;;;;21.70;9.70;;;;;;;3.86;55.36;99582.86;104568;1268;97987;-80
2023/05/10 03:59:30;;;;;;;20.70;9.20;;;;;;;3.93;55.50;99583.81;104766;1266;107056;-80
2023/05/10 04:01:58;;;;;;;20.40;8.80;;;;;;;3.97;55.40;99582.24;104856;1263;98074;-80
2023/05/10 04:04:26;;;;;;;20.60;9.20;;;;;;;4.02;55.57;99579.27;104639;1262;97949;-81
2023/05/10 04:06:54;;;;;;;24.70;9.80;;;;;;;4.04;55.65;99580.08;104824;1262;111620;-80
2023/05/10 04:09:22;;;;;;;25.50;10.20;;;;;;;4.09;55.24;99581.31;104826;1262;98015;-81
2023/05/10 04:11:50;;;;;;;21.20;9.60;;;;;;;4.15;55.71;99579.65;106286;1262;107681;-82
2023/05/10 04:14:18;;;;;;;27.10;9.90;;;;;;;4.21;55.47;99583.48;104870;1262;97960;-81
2023/05/10 04:16:45;;;;;;;19.50;8.80;;;;;;;4.27;55.65;99586.05;104691;1262;97992;-81
2023/05/10 04:19:13;;;;;;;21.60;9.30;;;;;;;4.33;56.03;99584.77;104844;1268;111050;-82
2023/05/10 04:21:41;;;;;;;20.30;9.10;;;;;;;4.39;55.90;99586.80;106164;1266;97965;-81
2023/05/10 04:24:09;;;;;;;23.60;9.60;;;;;;;4.46;56.00;99587.23;105937;1266;108873;-79
2023/05/10 04:26:37;;;;;;;23.10;9.20;;;;;;;4.56;56.04;99584.95;105971;1263;97864;-80
2023/05/10 04:29:04;;;;;;;22.40;9.70;;;;;;;4.64;55.96;99588.13;107701;1262;95765;-80
2023/05/10 04:31:32;;;;;;;22.80;9.90;;;;;;;4.75;56.09;99587.17;108079;1263;112446;-80
2023/05/10 04:34:17;;;;;;;21.30;9.70;;;;;;;4.86;56.12;99586.91;106234;1263;98854;-82
2023/05/10 04:36:46;;;;;;;24.60;9.40;;;;;;;4.97;56.15;99589.98;105297;1263;106903;-80
2023/05/10 04:39:13;;;;;;;21.60;10.20;;;;;;;5.07;56.23;99587.81;105151;1268;97863;-80
2023/05/10 04:41:41;;;;;;;23.30;10.30;;;;;;;5.18;56.21;99587.89;104869;1263;99125;-80
2023/05/10 04:44:09;;;;;;;21.70;9.90;;;;;;;5.29;56.37;99591.44;107353;1262;112433;-81
2023/05/10 04:46:37;;;;;;;22.20;10.70;;;;;;;5.41;56.48;99590.08;105500;1263;97965;-81
2023/05/10 04:49:04;;;;;;;24.30;10.60;;;;;;;5.52;56.63;99590.66;104496;1263;108160;-81
2023/05/10 04:51:33;;;;;;;24.00;10.10;;;;;;;5.61;56.41;99588.89;104684;1268;99264;-81
2023/05/10 04:54:00;;;;;;;23.20;10.30;;;;;;;5.68;56.68;99585.38;104563;1262;97966;-81
2023/05/10 04:56:33;;;;;;;22.10;9.40;;;;;;;5.76;56.75;99578.89;104969;1267;111382;-81
2023/05/10 04:59:01;;;;;;;24.90;10.20;;;;;;;5.85;56.82;99584.10;104782;1278;98074;-80
2023/05/10 05:01:29;;;;;;;20.20;9.40;;;;;;;5.97;56.81;99584.63;104844;1277;107078;-79
2023/05/10 05:03:57;;;;;;;22.60;9.90;;;;;;;6.10;56.79;99590.25;104561;1266;97959;-80
2023/05/10 05:06:26;;;;;;;24.90;9.30;;;;;;;6.20;56.77;99584.14;104703;1262;98020;-80
2023/05/10 05:08:55;;;;;;;20.30;9.10;;;;;;;6.31;56.82;99584.71;104723;1262;110755;-78
2023/05/10 05:14:24;;;;;;;19.70;8.70;;;;;;;6.50;56.96;99577.86;107962;1258;106177;-84
2023/05/10 05:16:53;;;;;;;20.90;9.30;;;;;;;6.56;57.27;99577.38;105270;1265;97967;-86
2023/05/10 05:19:21;;;;;;;24.70;9.10;;;;;;;6.64;57.06;99576.98;105027;1265;97979;-87
2023/05/10 05:21:57;;;;;;;20.40;8.80;;;;;;;6.73;57.09;99576.02;104779;1266;111269;-86
2023/05/10 05:24:25;;;;;;;23.50;8.80;;;;;;;6.81;57.04;99573.68;104976;1262;97908;-85
2023/05/10 05:27:04;;;;;;;21.90;9.10;;;;;;;6.88;57.07;99570.19;104627;1268;108704;-85
2023/05/10 05:29:32;;;;;;;26.20;9.40;;;;;;;6.95;57.11;99571.23;104930;1268;98008;-83
2023/05/10 05:32:11;;;;;;;25.40;10.00;;;;;;;7.01;57.12;99574.46;104828;1266;98051;-84
2023/05/10 05:34:51;;;;;;;22.30;9.10;;;;;;;7.09;57.28;99571.98;105051;1262;111353;-86
2023/05/10 05:37:24;;;;;;;25.00;10.00;;;;;;;7.16;57.27;99574.44;104814;1262;99275;-84
2023/05/10 05:39:54;;;;;;;20.20;10.10;;;;;;;7.22;57.25;99575.38;105155;1262;107701;-83
2023/05/10 05:42:22;;;;;;;18.00;8.00;;;;;;;7.30;57.38;99573.77;105123;1262;98153;-78
2023/05/10 05:44:50;;;;;;;21.40;9.90;;;;;;;7.37;57.37;99575.84;104819;1262;97880;-78
2023/05/10 05:47:18;;;;;;;21.90;9.40;;;;;;;7.46;57.54;99572.22;104834;1266;111553;-78
2023/05/10 05:49:46;;;;;;;22.80;10.00;;;;;;;7.54;57.17;99570.73;104863;1264;97955;-78
2023/05/10 05:52:15;;;;;;;22.70;8.90;;;;;;;7.61;57.46;99570.74;104699;1266;106711;-80
2023/05/10 05:55:06;;;;;;;23.80;9.40;;;;;;;7.69;57.45;99567.48;104703;1268;98896;-82
2023/05/10 05:57:34;;;;;;;24.10;10.00;;;;;;;7.78;57.38;99566.33;105102;1268;98645;-84
2023/05/10 06:00:17;;;;;;;23.20;9.40;;;;;;;7.85;57.58;99562.03;105093;1262;112524;-86
2023/05/10 06:02:54;;;;;;;25.30;8.90;;;;;;;7.95;57.50;99571.42;104785;1268;98041;-88
2023/05/10 06:05:29;;;;;;;22.40;10.00;;;;;;;8.02;57.51;99566.81;105105;1268;107636;-87
2023/05/10 06:07:59;;;;;;;25.60;9.20;;;;;;;8.08;57.50;99565.80;104831;1266;97955;-87
2023/05/10 06:10:33;;;;;;;18.40;8.50;;;;;;;8.14;57.59;99564.76;105028;1268;97957;-86
2023/05/10 06:13:06;;;;;;;24.20;8.30;;;;;;;8.23;57.72;99567.11;104957;1266;111022;-87
2023/05/10 06:15:46;;;;;;;19.00;8.00;;;;;;;8.34;57.88;99569.52;105149;1268;98520;-84
2023/05/10 06:18:27;;;;;;;20.10;7.80;;;;;;;8.44;57.81;99567.55;105048;1268;107746;-85
2023/05/10 06:21:02;;;;;;;19.20;8.80;;;;;;;8.53;57.83;99565.50;104802;1262;98050;-85
2023/05/10 06:23:33;;;;;;;17.40;7.10;;;;;;;8.61;57.85;99566.10;104816;1266;97883;-86
2023/05/10 06:26:02;;;;;;;17.80;7.20;;;;;;;8.69;57.79;99568.10;105193;1268;111300;-86
2023/05/10 06:28:32;;;;;;;17.60;8.30;;;;;;;8.79;57.90;99570.02;104869;1264;97992;-84
2023/05/10 06:31:02;;;;;;;16.40;7.00;;;;;;;8.90;57.78;99566.77;105197;1262;107306;-84
2023/05/10 06:33:30;;;;;;;17.50;6.80;;;;;;;9.00;58.07;99564.23;104932;1268;97983;-80
2023/05/10 06:36:02;;;;;;;22.70;7.80;;;;;;;9.12;57.93;99562.49;105170;1263;97975;-83
2023/05/10 06:38:33;;;;;;;16.30;6.80;;;;;;;9.21;57.93;99564.59;105036;1264;111296;-83
2023/05/10 06:41:01;;;;;;;11.90;5.00;;;;;;;9.29;57.85;99562.18;105503;1266;97838;-87
2023/05/10 06:43:34;;;;;;;13.10;5.70;;;;;;;9.41;58.05;99560.79;104861;1262;108861;-86
2023/05/10 06:46:03;;;;;;;12.60;5.40;;;;;;;9.55;57.90;99556.39;104809;1268;98006;-83
2023/05/10 06:48:31;;;;;;;14.80;5.80;;;;;;;9.65;57.85;99556.87;104692;1266;97945;-84
2023/05/10 06:50:59;;;;;;;14.80;5.40;;;;;;;9.74;57.84;99558.63;104741;1268;111365;-85
2023/05/10 06:53:27;;;;;;;12.70;5.40;;;;;;;9.82;57.91;99556.34;104693;1268;98780;-81
2023/05/10 06:56:00;;;;;;;13.70;5.10;;;;;;;9.93;57.87;99557.66;104718;1268;107724;-83
2023/05/10 06:58:28;;;;;;;;;;;;;;;10.07;57.91;99556.58;104749;1268;98058;-82
2023/05/10 07:01:02;;;;;;;19.90;6.10;;;;;;;10.20;58.10;99558.10;104659;1270;97921;-84
2023/05/10 07:03:37;;;;;;;13.10;5.60;;;;;;;10.30;57.84;99553.54;105012;1264;110499;-84
2023/05/10 07:06:10;;;;;;;17.70;5.90;;;;;;;10.37;57.84;99554.86;104904;1266;97969;-85
2023/05/10 07:08:57;;;;;;;16.20;5.90;;;;;;;10.41;57.91;99554.43;104650;1268;107693;-84
2023/05/10 07:11:26;;;;;;;13.20;5.10;;;;;;;10.47;57.74;99554.25;104548;1268;99323;-81
2023/05/10 07:13:55;;;;;;;12.00;5.00;;;;;;;10.55;57.78;99551.13;104420;1266;99307;-83
2023/05/10 07:16:25;;;;;;;11.70;5.00;;;;;;;10.61;57.88;99553.89;104416;1265;110748;-82
2023/05/10 07:18:53;;;;;;;11.30;5.20;;;;;;;10.71;57.77;99551.83;104742;1266;97877;-83
2023/05/10 07:21:23;;;;;;;13.50;4.40;;;;;;;10.79;57.56;99550.06;104898;1268;108274;-83
2023/05/10 07:23:51;;;;;;;9.70;4.70;;;;;;;10.90;57.65;99548.65;104683;1267;98090;-81
2023/05/10 07:26:20;;;;;;;11.30;4.60;;;;;;;11.00;57.58;99548.89;104745;1268;97986;-84
2023/05/10 07:28:49;;;;;;;12.20;5.10;;;;;;;11.09;57.45;99549.15;104400;1266;112019;-83
2023/05/10 07:31:17;;;;;;;11.80;4.90;;;;;;;11.15;57.51;99548.05;104771;1263;99276;-85
2023/05/10 07:33:47;;;;;;;11.50;5.10;;;;;;;11.25;57.72;99554.15;104841;1266;107253;-85
2023/05/10 07:36:23;;;;;;;13.20;5.60;;;;;;;11.32;57.54;99551.38;104789;1268;97879;-82
2023/05/10 07:38:57;;;;;;;11.20;4.70;;;;;;;11.40;57.43;99551.52;104817;1268;98083;-85
2023/05/10 07:41:37;;;;;;;10.80;5.10;;;;;;;11.47;57.36;99551.93;104785;1265;111281;-84
2023/05/10 07:44:08;;;;;;;9.80;4.30;;;;;;;11.51;57.36;99547.95;104648;1268;97957;-84
2023/05/10 07:46:41;;;;;;;14.40;5.30;;;;;;;11.56;57.25;99543.70;104822;1271;107261;-84
2023/05/10 07:49:17;;;;;;;14.90;4.90;;;;;;;11.61;57.20;99548.29;104708;1267;99311;-87
2023/05/10 07:51:56;;;;;;;11.50;4.70;;;;;;;11.68;56.95;99544.09;104742;1268;98489;-85
2023/05/10 07:54:30;;;;;;;6.80;3.70;;;;;;;11.78;56.90;99543.61;104665;1267;111305;-85
2023/05/10 07:57:03;;;;;;;;;;;;;;;11.85;57.04;99541.12;104768;1265;97990;-86
2023/05/10 07:59:33;;;;;;;14.40;5.10;;;;;;;11.94;57.01;99544.08;104878;1268;107661;-85
2023/05/10 08:02:02;;;;;;;11.40;5.00;;;;;;;12.00;56.93;99545.98;104799;1268;97884;-83
2023/05/10 08:07:50;;;;;;;10.30;3.90;;;;;;;12.17;56.48;99541.97;104765;1268;111394;-88
2023/05/10 08:10:25;;;;;;;10.10;3.70;;;;;;;12.24;56.69;99542.20;104795;1264;98062;-83
2023/05/10 08:12:58;;;;;;;8.00;3.50;;;;;;;12.33;56.60;99547.54;104863;1264;108396;-83
2023/05/10 08:15:38;;;;;;;11.00;3.50;;;;;;;12.41;56.45;99543.11;104752;1267;98070;-86
2023/05/10 08:18:22;;;;;;;7.20;3.30;;;;;;;12.43;56.42;99544.34;105000;1262;97868;-90
2023/05/10 08:20:56;;;;;;;7.10;3.20;;;;;;;12.48;56.32;99546.46;104776;1266;110796;-88
2023/05/10 08:23:37;;;;;;;;;;;;;;;12.51;56.08;99547.88;104751;1268;97901;-90
2023/05/10 08:26:16;;;;;;;11.00;3.60;;;;;;;12.54;55.98;99546.20;104812;1268;106717;-87
2023/05/10 08:28:44;;;;;;;9.80;3.70;;;;;;;12.62;55.82;99553.10;104669;1265;98889;-90
2023/05/10 08:31:12;;;;;;;8.20;4.00;;;;;;;12.74;55.72;99552.27;104699;1268;97991;-89
2023/05/10 08:33:40;;;;;;;9.40;4.40;;;;;;;12.79;55.44;99551.15;104675;1267;111312;-87
2023/05/10 08:36:38;;;;;;;12.80;4.30;;;;;;;12.81;55.33;99549.93;104710;1268;97880;-87
2023/05/10 08:39:14;;;;;;;9.00;4.30;;;;;;;12.87;55.31;99550.23;104643;1268;107641;-86
2023/05/10 08:42:01;;;;;;;9.60;3.80;;;;;;;12.93;55.42;99551.39;104633;1267;97948;-85
2023/05/10 08:44:36;;;;;;;6.10;3.80;;;;;;;12.96;55.23;99544.73;104658;1267;98416;-85
2023/05/10 08:47:18;;;;;;;5.50;3.50;;;;;;;12.98;54.59;99546.05;104573;1266;111278;-87
2023/05/10 08:50:04;;;;;;;9.40;3.60;;;;;;;13.01;54.74;99547.40;104725;1268;99204;-86
2023/05/10 08:52:36;;;;;;;8.10;3.60;;;;;;;13.04;54.59;99545.26;104782;1263;107592;-88
2023/05/10 08:55:04;;;;;;;7.70;3.60;;;;;;;13.06;54.25;99549.84;104823;1267;97973;-85
2023/05/10 08:57:33;;;;;;;10.70;3.80;;;;;;;13.11;54.32;99554.14;104646;1267;97981;-87
2023/05/10 09:00:02;;;;;;;12.50;4.00;;;;;;;13.16;54.53;99551.84;104719;1266;110947;-86
2023/05/10 09:02:30;;;;;;;9.20;3.70;;;;;;;13.21;54.21;99557.86;104900;1268;97982;-85
2023/05/10 09:04:58;;;;;;;7.00;3.20;;;;;;;13.24;54.53;99554.53;104791;1267;107614;-85
2023/05/10 09:07:27;;;;;;;6.90;3.60;;;;;;;13.25;54.40;99555.73;104852;1268;97974;-86
2023/05/10 09:09:55;;;;;;;8.60;3.60;;;;;;;13.26;53.94;99555.31;104763;1268;97977;-85
2023/05/10 09:12:29;;;;;;;7.40;3.60;;;;;;;13.28;54.08;99551.97;104909;1264;111067;-87
2023/05/10 09:15:06;;;;;;;10.80;3.90;;;;;;;13.32;54.05;99552.05;104744;1268;97971;-86
2023/05/10 09:17:35;;;;;;;8.30;3.20;;;;;;;13.33;53.63;99553.37;104984;1268;108390;-78
2023/05/10 09:20:04;;;;;;;7.30;3.90;;;;;;;13.38;53.63;99551.96;104743;1264;97988;-79
2023/05/10 09:22:57;;;;;;;7.40;3.10;;;;;;;13.40;53.33;99549.80;104721;1268;97975;-83
2023/05/10 09:25:35;;;;;;;7.70;3.50;;;;;;;13.41;53.15;99546.57;104749;1267;110893;-83
2023/05/10 09:28:08;;;;;;;6.00;3.30;;;;;;;13.45;52.07;99544.88;104698;1270;98094;-86
2023/05/10 09:30:36;;;;;;;11.90;3.20;;;;;;;13.47;52.41;99545.53;104775;1268;107632;-87
2023/05/10 09:33:12;;;;;;;8.50;3.30;;;;;;;13.46;52.62;99542.06;104684;1267;97994;-88
2023/05/10 09:35:50;;;;;;;7.90;3.80;;;;;;;13.47;52.55;99545.41;104828;1267;98921;-87
2023/05/10 09:38:22;;;;;;;10.10;4.10;;;;;;;13.48;52.14;99538.56;104833;1268;111225;-83
2023/05/10 09:40:54;;;;;;;8.90;4.00;;;;;;;13.48;51.46;99533.70;104713;1265;99300;-87
2023/05/10 09:43:42;;;;;;;7.10;3.80;;;;;;;13.54;51.77;99536.99;104764;1263;107665;-88
2023/05/10 09:46:11;;;;;;;9.00;3.60;;;;;;;13.59;51.75;99537.15;104742;1262;97882;-88
2023/05/10 09:48:43;;;;;;;8.90;3.80;;;;;;;13.61;51.85;99533.46;104877;1266;97953;-90
2023/05/10 09:51:34;;;;;;;7.90;3.70;;;;;;;13.61;51.41;99537.03;104666;1265;111869;-90
2023/05/10 09:54:19;;;;;;;7.30;3.40;;;;;;;13.62;50.83;99533.02;104817;1268;97997;-88
2023/05/10 09:56:47;;;;;;;9.10;4.10;;;;;;;13.65;51.19;99526.20;104783;1263;107371;-87
2023/05/10 09:59:16;;;;;;;8.20;3.40;;;;;;;13.71;51.18;99518.94;104932;1268;98863;-87
2023/05/10 10:01:59;;;;;;;8.50;3.60;;;;;;;13.77;51.21;99523.70;104828;1266;98117;-85
2023/05/10 10:04:28;;;;;;;6.20;3.20;;;;;;;13.82;51.23;99519.90;104863;1268;110880;-85
2023/05/10 10:07:11;;;;;;;10.70;4.10;;;;;;;13.83;50.95;99524.95;104737;1265;97927;-86
2023/05/10 10:09:40;;;;;;;8.60;3.90;;;;;;;13.78;51.10;99521.45;104627;1262;106156;-87
2023/05/10 10:12:19;;;;;;;6.80;3.30;;;;;;;13.71;50.85;99523.40;104862;1268;97970;-86
2023/05/10 10:14:49;;;;;;;8.00;3.60;;;;;;;13.74;50.79;99520.54;104795;1269;98113;-87
2023/05/10 10:17:27;;;;;;;8.90;3.70;;;;;;;13.74;50.51;99514.95;104690;1264;110820;-87
2023/05/10 10:19:58;;;;;;;7.20;3.30;;;;;;;13.74;50.47;99514.11;104789;1263;97986;-87
2023/05/10 10:22:26;;;;;;;7.60;3.50;;;;;;;13.70;50.22;99513.14;104764;1262;107139;-90
2023/05/10 10:25:00;;;;;;;8.00;3.40;;;;;;;13.68;50.44;99511.33;104732;1268;97939;-88
2023/05/10 10:27:54;;;;;;;6.30;3.60;;;;;;;13.73;50.47;99506.86;104813;1263;97955;-88
2023/05/10 10:30:38;;;;;;;7.20;3.40;;;;;;;13.80;50.48;99504.16;104774;1269;111317;-88
2023/05/10 10:33:27;;;;;;;5.00;3.20;;;;;;;13.85;49.93;99501.66;104840;1266;98632;-88
2023/05/10 10:36:11;;;;;;;8.00;3.40;;;;;;;13.84;49.73;99498.70;104896;1274;107751;-88
2023/05/10 10:38:41;;;;;;;10.20;3.40;;;;;;;13.88;50.22;99491.41;104718;1267;98911;-89
2023/05/10 10:41:21;;;;;;;7.00;4.00;;;;;;;13.97;50.16;99489.80;104964;1266;98060;-86
2023/05/10 10:44:31;;;;;;;11.00;3.60;;;;;;;14.07;49.97;99485.23;104737;1269;110734;-89
2023/05/10 10:47:32;;;;;;;7.00;3.10;;;;;;;14.12;50.01;99473.59;104826;1267;98601;-90
2023/05/10 10:50:08;;;;;;;9.30;3.60;;;;;;;14.17;49.81;99469.92;104712;1268;107602;-85
2023/05/10 10:52:42;;;;;;;8.10;3.30;;;;;;;14.20;49.83;99467.16;104887;1266;97964;-84
2023/05/10 10:55:23;;;;;;;10.70;3.10;;;;;;;14.24;49.65;99464.70;104737;1268;99158;-87
2023/05/10 10:58:36;;;;;;;9.10;3.40;;;;;;;14.27;49.66;99459.40;104931;1262;111324;-90
2023/05/10 11:01:22;;;;;;;6.20;3.20;;;;;;;14.35;49.00;99460.34;104719;1266;98467;-85
2023/05/10 11:04:19;;;;;;;8.50;3.50;;;;;;;14.47;49.34;99452.95;104696;1264;107656;-88
2023/05/10 11:07:08;;;;;;;6.80;3.10;;;;;;;14.54;49.48;99444.12;104876;1266;97986;-86
2023/05/10 11:09:44;;;;;;;7.10;3.60;;;;;;;14.59;49.35;99444.67;104768;1268;97940;-86
2023/05/10 11:12:22;;;;;;;8.20;3.60;;;;;;;14.66;48.93;99446.61;104760;1267;111316;-87
2023/05/10 11:14:58;;;;;;;4.90;3.10;;;;;;;14.71;48.96;99443.50;104781;1267;97896;-88
2023/05/10 11:17:35;;;;;;;8.40;3.50;;;;;;;14.72;49.05;99439.45;104860;1267;106845;-84
2023/05/10 11:20:09;;;;;;;7.10;3.60;;;;;;;14.76;48.94;99435.45;104801;1264;98595;-85
2023/05/10 11:22:55;;;;;;;10.40;3.40;;;;;;;14.77;47.86;99428.38;104684;1268;97939;-84
2023/05/10 11:25:50;;;;;;;10.10;3.30;;;;;;;14.77;48.67;99434.30;104901;1268;111306;-87
2023/05/10 11:28:30;;;;;;;6.60;3.30;;;;;;;14.78;48.24;99436.66;104721;1279;98094;-85
2023/05/10 11:30:58;;;;;;;7.50;3.20;;;;;;;14.88;48.67;99440.44;104779;1267;107507;-85
2023/05/10 11:33:26;;;;;;;5.50;3.40;;;;;;;14.93;48.34;99437.59;104821;1265;99282;-83
2023/05/10 11:35:59;;;;;;;8.90;3.50;;;;;;;14.96;47.96;99434.63;104776;1268;97973;-86
2023/05/10 11:42:48;;;;;;;9.30;3.90;;;;;;;15.14;47.32;99424.38;104779;1268;99634;-84
2023/05/10 11:45:21;;;;;;;10.90;3.30;;;;;;;15.14;47.64;99421.48;102945;1276;2432822;-85
2023/05/10 11:47:49;;;;;;;4.90;2.70;;;;;;;15.21;47.75;99425.02;104749;1266;98359;-85
2023/05/10 11:50:24;;;;;;;5.20;2.60;;;;;;;15.25;47.72;99423.48;104789;1276;97963;-87
2023/05/10 11:52:53;;;;;;;4.60;2.60;;;;;;;15.28;47.55;99420.80;104778;1267;111282;-86
2023/05/10 11:55:24;;;;;;;6.20;2.90;;;;;;;15.28;47.15;99420.31;104890;1265;97967;-88
2023/05/10 11:58:21;;;;;;;5.00;3.10;;;;;;;15.23;46.86;99419.36;104966;1270;107698;-89